Pagrindinis puslapis
METAR-TAF:

METAR-TAF

Oro uostai :

Memmingen, Vokietija

platuma: 47-59-33N, ilguma: 10-14-37E, Aukštis: 633 m

Dabartinis oras

Ataskaita buvo paskelbta 19 minutes, ne 04:20 UTC
Vėjas 12 kt iš Pietvakarių
Temperatūra 6°C
Drėgmė 52%
Slėgis 1007 hPa
Matomumas 10 km arba daugiau

METAR: EDJA 290420Z AUTO 22012KT 9999 // FEW046/// BKN055/// OVC071/// 06/M03 Q1007

Laikas: 05:39 (04:39 UTC)

Prognozė

Ataskaita buvo paskelbta 11 valandos ir 39 minutes, ne 17:00 UTC
Prognozė galioja nuo 28 metu 18 UTC su 29 metu 03 UTC
Vėjas 3 kt nuo kintamojo kryptimis
Matomumas 10 km arba daugiau
nėra debesų žemiau 1500 m ir nėra kamuolinių lietaus debesų
Laikinai
nuo 28 metu 18 UTC su 28 metu 24 UTC
Vėjas 5 kt iš Pietų
Tikimybė 30% :
Laikinai
nuo 28 metu 22 UTC su 29 metu 01 UTC
(silpnas) ledijantis, lietus
Tapsmas
nuo 29 metu 00 UTC su 29 metu 03 UTC
Vėjas 6 kt iš Pietų/Pietvakarių

TAF: EDJA 281700Z 2818/2903 VRB03KT CAVOK TEMPO 2818/2824 18005KT PROB30 TEMPO 2822/2901 -FZRA BECMG 2900/2903 21006KT

Orai ataskaitas ir orų prognozės (METAR, TAF).

turimą stotys yra geltonos ir raudonos taškus žemėlapyje.

Perkelti pele per norėdami pamatyti stoties vardą.

Tada spustelėkite, norėdami matyti oro stebėjimo ir prognozės.

Norėdami pakeisti žemėlapį: spustelėkite ant žalios mygtukų su juodo kryžiaus žemyn,; žalią mygtuką su brūkšneliu, jei norite nutolinti; arba žalių rodyklių gretimoms žemėlapius.


METAR-TAF: